createdAt,value
2022-09-07T00:00:07.822Z,81.20
2022-09-07T00:03:49.749Z,81.20
2022-09-07T00:07:31.613Z,81.20
2022-09-07T00:11:19.238Z,81.20
2022-09-07T00:15:02.336Z,81.30
2022-09-07T00:18:46.223Z,81.40
2022-09-07T00:22:28.422Z,81.60
2022-09-07T00:26:13.445Z,81.70
2022-09-07T00:29:55.191Z,81.70
2022-09-07T00:33:37.189Z,81.70
2022-09-07T00:37:19.007Z,81.60
2022-09-07T00:41:00.761Z,81.70
2022-09-07T00:44:42.594Z,81.60
2022-09-07T00:48:31.190Z,81.70
2022-09-07T00:52:14.031Z,81.80
2022-09-07T00:55:57.739Z,81.80
2022-09-07T00:59:45.007Z,81.90
2022-09-07T01:03:33.542Z,82.00
2022-09-07T01:07:15.548Z,81.90
2022-09-07T01:10:58.677Z,82.00
2022-09-07T01:14:50.428Z,82.10
2022-09-07T01:18:55.251Z,82.10
2022-09-07T01:23:04.594Z,82.10
2022-09-07T01:27:01.307Z,82.40
2022-09-07T01:30:54.230Z,82.30
2022-09-07T01:34:38.655Z,82.10
2022-09-07T01:38:47.124Z,82.00
2022-09-07T01:42:33.829Z,82.40
2022-09-07T01:46:24.264Z,82.10
2022-09-07T01:50:28.558Z,82.30
2022-09-07T01:54:31.649Z,82.60
2022-09-07T01:58:21.687Z,82.60
2022-09-07T02:02:17.555Z,82.40
2022-09-07T02:06:07.297Z,82.60
2022-09-07T02:10:27.476Z,82.50
2022-09-07T02:14:20.165Z,82.90
2022-09-07T02:18:07.039Z,82.70
2022-09-07T02:21:57.103Z,82.50
2022-09-07T02:25:55.915Z,82.40
2022-09-07T02:29:38.132Z,82.70
2022-09-07T02:33:19.973Z,82.40
2022-09-07T02:37:05.585Z,82.50
2022-09-07T02:40:52.293Z,82.50
2022-09-07T02:44:38.040Z,82.50
2022-09-07T02:48:45.155Z,82.60
2022-09-07T02:53:12.169Z,83.00
2022-09-07T02:57:24.895Z,83.10
2022-09-07T03:01:48.392Z,83.10
2022-09-07T03:05:48.697Z,83.10
2022-09-07T03:09:37.313Z,82.70
2022-09-07T03:13:27.785Z,82.60
2022-09-07T03:17:10.081Z,82.80
2022-09-07T03:20:51.987Z,82.60
2022-09-07T03:24:33.803Z,82.60
2022-09-07T03:28:16.233Z,82.60
2022-09-07T03:31:58.042Z,82.80
2022-09-07T03:35:39.802Z,82.80
2022-09-07T03:39:23.780Z,82.80
2022-09-07T03:43:05.529Z,82.90
2022-09-07T03:46:47.428Z,83.00
2022-09-07T03:50:29.338Z,83.00
2022-09-07T03:54:11.089Z,83.10
2022-09-07T03:57:52.954Z,83.20
2022-09-07T04:01:34.805Z,83.30
2022-09-07T04:05:17.942Z,83.30
2022-09-07T04:09:10.585Z,83.40
2022-09-07T04:12:52.334Z,83.50
2022-09-07T04:16:34.233Z,83.30
2022-09-07T04:20:16.162Z,83.30
2022-09-07T04:23:58.839Z,83.40
2022-09-07T04:27:40.583Z,83.60
2022-09-07T04:31:23.686Z,83.60
2022-09-07T04:35:06.093Z,83.60
2022-09-07T04:38:53.995Z,83.60
2022-09-07T04:42:35.731Z,83.70
2022-09-07T04:46:24.553Z,83.60
2022-09-07T04:50:06.924Z,83.60
2022-09-07T04:53:50.702Z,83.50
2022-09-07T04:57:32.434Z,83.60
2022-09-07T05:01:18.241Z,83.60
2022-09-07T05:05:02.730Z,83.60
2022-09-07T05:08:47.890Z,83.60
2022-09-07T05:12:29.702Z,83.70
2022-09-07T05:16:17.525Z,83.60
2022-09-07T05:19:59.379Z,83.70
2022-09-07T05:23:42.168Z,83.70
2022-09-07T05:27:24.006Z,83.70
2022-09-07T05:31:23.500Z,83.70
2022-09-07T05:35:05.653Z,83.70
2022-09-07T05:38:47.796Z,83.70
2022-09-07T05:42:30.504Z,83.70
2022-09-07T05:46:13.156Z,83.70
2022-09-07T05:49:57.255Z,83.70
2022-09-07T05:53:41.319Z,83.70
2022-09-07T05:57:23.071Z,83.50
2022-09-07T06:01:07.775Z,83.50
2022-09-07T06:04:49.599Z,83.60
2022-09-07T06:08:32.559Z,83.70
2022-09-07T06:12:14.303Z,83.80
2022-09-07T06:16:00.773Z,83.80
2022-09-07T06:19:42.533Z,84.00
2022-09-07T06:23:24.275Z,84.00
2022-09-07T06:27:06.099Z,84.00
2022-09-07T06:30:47.876Z,84.00
2022-09-07T06:34:29.686Z,84.10
2022-09-07T06:38:11.483Z,84.10
2022-09-07T06:42:00.486Z,84.00
2022-09-07T06:45:42.696Z,84.10
2022-09-07T06:49:25.496Z,84.10
2022-09-07T06:57:09.767Z,84.20
2022-09-07T07:00:52.284Z,84.30
2022-09-07T07:04:39.386Z,84.50
2022-09-07T07:08:25.374Z,84.40
2022-09-07T07:12:07.346Z,84.30
2022-09-07T07:15:49.542Z,84.10
2022-09-07T07:19:31.297Z,83.90
2022-09-07T07:23:13.204Z,83.80
2022-09-07T07:26:54.994Z,83.80
2022-09-07T07:30:36.759Z,83.90
2022-09-07T07:34:19.028Z,83.90
2022-09-07T07:42:05.740Z,84.00
2022-09-07T07:45:55.231Z,84.00
2022-09-07T07:49:37.049Z,83.90
2022-09-07T07:57:21.066Z,83.80
2022-09-07T08:01:10.199Z,83.50
2022-09-07T08:04:52.858Z,83.50
2022-09-07T08:08:36.138Z,83.40
2022-09-07T08:12:19.610Z,83.20
2022-09-07T08:16:01.805Z,83.10
2022-09-07T08:19:45.087Z,83.10
2022-09-07T08:23:26.828Z,82.90
2022-09-07T08:27:09.114Z,82.90
2022-09-07T08:30:51.356Z,83.00
2022-09-07T08:34:36.195Z,82.90
2022-09-07T08:38:20.950Z,83.00
2022-09-07T08:42:20.653Z,82.80
2022-09-07T08:46:26.524Z,81.20
2022-09-07T08:50:22.992Z,81.20
2022-09-07T08:54:05.913Z,81.70
2022-09-07T08:58:22.206Z,82.20
2022-09-07T09:02:36.528Z,82.10
2022-09-07T09:06:29.979Z,82.10
2022-09-07T09:10:30.392Z,81.70
2022-09-07T09:14:21.053Z,82.30
2022-09-07T09:18:27.203Z,82.60
2022-09-07T09:22:14.533Z,82.30
2022-09-07T09:26:05.765Z,82.30
2022-09-07T09:29:47.558Z,81.00
2022-09-07T09:33:29.407Z,81.30
2022-09-07T09:37:11.668Z,80.70
2022-09-07T09:40:53.952Z,80.40
2022-09-07T09:44:38.160Z,80.00
2022-09-07T09:48:35.163Z,80.10
2022-09-07T09:52:43.526Z,79.00
2022-09-07T09:56:22.839Z,80.00
2022-09-07T10:00:10.934Z,80.10
2022-09-07T10:07:52.455Z,80.80
2022-09-07T10:15:54.401Z,80.90
2022-09-07T10:19:38.973Z,80.80
2022-09-07T10:23:25.274Z,80.70
2022-09-07T10:27:40.752Z,80.80
2022-09-07T10:31:31.536Z,80.20
2022-09-07T10:35:16.900Z,80.60
2022-09-07T10:39:14.645Z,80.60
2022-09-07T10:43:21.063Z,79.90
2022-09-07T10:47:32.237Z,80.00
2022-09-07T10:51:18.122Z,79.90
2022-09-07T10:55:11.507Z,80.30
2022-09-07T11:00:07.596Z,80.20
2022-09-07T11:04:02.390Z,79.30
2022-09-07T11:07:53.058Z,78.30
2022-09-07T11:12:01.154Z,78.90
2022-09-07T11:15:45.967Z,78.60
2022-09-07T11:19:36.453Z,75.10
2022-09-07T11:23:44.213Z,78.60
2022-09-07T11:27:51.884Z,76.50
2022-09-07T11:31:47.714Z,78.10
2022-09-07T11:35:43.972Z,76.50
2022-09-07T11:39:49.892Z,76.60
2022-09-07T11:43:43.516Z,77.60
2022-09-07T11:47:41.951Z,74.30
2022-09-07T11:51:46.807Z,75.20
2022-09-07T11:55:35.127Z,74.50
2022-09-07T11:59:22.975Z,74.40
2022-09-07T12:03:23.956Z,75.20
2022-09-07T12:07:27.053Z,69.80
2022-09-07T12:11:22.588Z,73.60
2022-09-07T12:15:10.895Z,72.30
2022-09-07T12:18:55.622Z,71.80
2022-09-07T12:22:38.070Z,72.80
2022-09-07T12:26:35.635Z,73.30
2022-09-07T12:30:18.588Z,68.90
2022-09-07T12:34:34.014Z,70.50
2022-09-07T12:38:18.723Z,66.50
2022-09-07T12:46:19.047Z,67.80
2022-09-07T12:50:29.783Z,65.30
2022-09-07T12:54:27.639Z,65.30
2022-09-07T12:58:27.322Z,67.90
2022-09-07T13:02:27.858Z,67.90
2022-09-07T13:10:47.276Z,66.00
2022-09-07T13:14:29.807Z,69.30
2022-09-07T13:18:34.474Z,68.50
2022-09-07T13:22:42.516Z,62.50
2022-09-07T13:27:08.351Z,63.50
2022-09-07T13:31:26.718Z,64.30
2022-09-07T13:35:24.367Z,64.00
2022-09-07T13:39:11.623Z,63.50
2022-09-07T13:42:55.751Z,65.20
2022-09-07T13:46:57.442Z,64.70
2022-09-07T13:50:45.577Z,60.90
2022-09-07T13:54:58.502Z,64.20
2022-09-07T13:58:43.686Z,59.20
2022-09-07T14:02:33.381Z,63.50
2022-09-07T14:06:27.142Z,60.10
2022-09-07T14:10:20.240Z,62.30
2022-09-07T14:14:33.157Z,61.80
2022-09-07T14:18:30.358Z,59.40
2022-09-07T14:22:31.436Z,62.40
2022-09-07T14:26:23.393Z,60.30
2022-09-07T14:30:23.429Z,61.20
2022-09-07T14:34:06.606Z,60.00
2022-09-07T14:37:49.785Z,62.00
2022-09-07T14:41:34.086Z,62.10
2022-09-07T14:45:31.259Z,60.80
2022-09-07T14:49:20.923Z,59.50
2022-09-07T14:57:13.231Z,58.60
2022-09-07T15:05:20.979Z,54.90
2022-09-07T15:09:03.845Z,60.00
2022-09-07T15:12:45.652Z,60.20
2022-09-07T15:16:33.315Z,59.60
2022-09-07T15:20:31.691Z,58.50
2022-09-07T15:24:13.612Z,56.00
2022-09-07T15:27:56.082Z,59.20
2022-09-07T15:31:42.220Z,58.00
2022-09-07T15:35:25.854Z,57.50
2022-09-07T15:39:13.031Z,55.30
2022-09-07T15:43:11.469Z,58.40
2022-09-07T15:52:04.840Z,58.30
2022-09-07T15:55:09.383Z,57.00
2022-09-07T15:58:52.512Z,58.80
2022-09-07T16:06:38.541Z,59.00
2022-09-07T16:10:20.382Z,58.80
2022-09-07T16:14:03.572Z,59.00
2022-09-07T16:17:47.714Z,59.30
2022-09-07T16:21:30.355Z,59.60
2022-09-07T16:25:12.090Z,59.70
2022-09-07T16:28:54.601Z,59.80
2022-09-07T16:32:44.345Z,59.90
2022-09-07T16:36:26.502Z,59.90
2022-09-07T16:40:09.058Z,60.00
2022-09-07T16:43:51.023Z,60.30
2022-09-07T16:47:33.170Z,60.40
2022-09-07T16:51:16.759Z,60.40
2022-09-07T16:54:58.503Z,60.30
2022-09-07T16:58:42.739Z,60.50
2022-09-07T17:02:24.468Z,60.60
2022-09-07T17:06:08.606Z,60.80
2022-09-07T17:09:50.323Z,61.00
2022-09-07T17:13:33.639Z,61.10
2022-09-07T17:17:16.473Z,61.30
2022-09-07T17:20:58.581Z,61.60
2022-09-07T17:24:40.488Z,61.90
2022-09-07T17:28:22.198Z,62.20
2022-09-07T17:36:08.916Z,62.80
2022-09-07T17:39:50.638Z,63.00
2022-09-07T17:43:45.330Z,63.40
2022-09-07T17:47:27.797Z,63.60
2022-09-07T17:51:10.625Z,63.70
2022-09-07T17:54:55.327Z,64.20
2022-09-07T17:58:42.803Z,64.70
2022-09-07T18:02:24.586Z,66.00
2022-09-07T18:06:06.868Z,65.50
2022-09-07T18:09:48.592Z,65.80
2022-09-07T18:13:35.928Z,66.20
2022-09-07T18:17:18.178Z,66.40
2022-09-07T18:20:59.881Z,68.90
2022-09-07T18:24:41.680Z,67.10
2022-09-07T18:32:25.228Z,67.60
2022-09-07T18:36:07.700Z,68.10
2022-09-07T18:39:49.509Z,68.50
2022-09-07T18:43:41.569Z,68.90
2022-09-07T18:47:28.458Z,69.30
2022-09-07T18:51:12.315Z,69.40
2022-09-07T18:54:54.046Z,69.60
2022-09-07T18:58:36.063Z,70.00
2022-09-07T19:02:18.997Z,70.30
2022-09-07T19:06:03.823Z,70.50
2022-09-07T19:09:45.573Z,71.10
2022-09-07T19:13:27.324Z,71.50
2022-09-07T19:17:11.025Z,71.30
2022-09-07T19:20:52.783Z,71.60
2022-09-07T19:24:34.591Z,71.70
2022-09-07T19:28:18.486Z,71.80
2022-09-07T19:32:11.693Z,71.80
2022-09-07T19:35:53.409Z,71.80
2022-09-07T19:39:35.275Z,72.10
2022-09-07T19:43:17.058Z,72.20
2022-09-07T19:47:00.099Z,72.50
2022-09-07T19:50:41.888Z,72.40
2022-09-07T19:54:23.703Z,72.50
2022-09-07T19:58:05.541Z,72.70
2022-09-07T20:01:49.552Z,72.60
2022-09-07T20:05:31.280Z,72.80
2022-09-07T20:09:16.743Z,72.70
2022-09-07T20:12:58.559Z,72.90
2022-09-07T20:16:41.620Z,72.90
2022-09-07T20:20:23.626Z,73.00
2022-09-07T20:24:05.787Z,73.00
2022-09-07T20:27:48.255Z,73.10
2022-09-07T20:31:30.053Z,73.10
2022-09-07T20:35:11.828Z,73.40
2022-09-07T20:38:55.176Z,73.30
2022-09-07T20:42:37.510Z,73.50
2022-09-07T20:46:19.349Z,73.60
2022-09-07T20:50:01.287Z,73.40
2022-09-07T20:53:43.074Z,73.50
2022-09-07T20:57:24.876Z,73.60
2022-09-07T21:01:06.812Z,73.70
2022-09-07T21:04:48.843Z,73.70
2022-09-07T21:08:34.466Z,73.90
2022-09-07T21:12:16.346Z,73.90
2022-09-07T21:16:03.864Z,74.00
2022-09-07T21:19:45.686Z,74.50
2022-09-07T21:23:31.790Z,74.00
2022-09-07T21:27:13.749Z,74.00
2022-09-07T21:31:02.064Z,74.10
2022-09-07T21:34:43.778Z,74.20
2022-09-07T21:38:25.536Z,74.30
2022-09-07T21:42:07.342Z,74.40
2022-09-07T21:45:49.567Z,74.50
2022-09-07T21:49:31.444Z,74.40
2022-09-07T21:53:13.373Z,74.40
2022-09-07T21:56:55.054Z,74.50
2022-09-07T22:00:38.846Z,74.50
2022-09-07T22:04:20.722Z,74.70
2022-09-07T22:08:02.674Z,74.70
2022-09-07T22:11:46.201Z,74.80
2022-09-07T22:15:39.433Z,74.80
2022-09-07T22:19:21.193Z,75.30
2022-09-07T22:23:05.439Z,75.10
2022-09-07T22:26:47.211Z,75.20
2022-09-07T22:30:28.999Z,75.30
2022-09-07T22:34:11.136Z,75.30
2022-09-07T22:37:55.964Z,75.90
2022-09-07T22:41:38.835Z,75.80
2022-09-07T22:45:20.639Z,75.90
2022-09-07T22:49:03.324Z,76.00
2022-09-07T22:52:48.773Z,76.20
2022-09-07T22:56:32.888Z,76.20
2022-09-07T23:00:14.940Z,76.20
2022-09-07T23:03:57.554Z,76.20
2022-09-07T23:07:39.765Z,76.30
2022-09-07T23:11:22.615Z,76.50
2022-09-07T23:15:05.111Z,76.40
2022-09-07T23:18:47.204Z,76.30
2022-09-07T23:26:52.967Z,77.50
2022-09-07T23:30:35.669Z,76.50
2022-09-07T23:34:17.474Z,76.50
2022-09-07T23:37:59.346Z,76.60
2022-09-07T23:41:41.113Z,76.70
2022-09-07T23:45:22.863Z,77.00
2022-09-07T23:49:04.654Z,77.00
2022-09-07T23:52:46.555Z,76.90
2022-09-07T23:56:28.699Z,76.80
